Aurora Springs, Missouri
Current Conditions -  °F | °C
As of 10:35 PM on Wednesday 22 Oct 2014 (Local Time) from KAIZ Reporting Station
Clear Clear  
Wind Chill: 11°   Ceiling: Unl
Heat Index: 11°   Visibility: 10mi
Dew Point:   Wind: 6mph
Humidity: 71%   Direction: 150°SSE
Pressure: 30.18"   Gusts: NA
Location:  38.333°N, 92.5524°W
Report Text: KAIZ 230335Z AUTO 15005KT 10SM CLR 11/06 A3018 RMK AO1
Loading
Personal Weather Stations






























Interactive Weather Map
Tropical Storm Tracking
New forecast layout! Learn more

10-Day Weather Forecast

Advertisements
Track Severe Weather on mobile